Time;durP1;ratioP1;P1;durP2;ratioP2;P2;SDS_P1;SDS_P2;PMS_P1;PMS_P2;Temp;Humidity;BMP_temperature;BMP_pressure;BME280_temperature;BME280_humidity;BME280_pressure;Samples;Min_cycle;Max_cycle;Signal;HPM_P1;HPM_P2
2024/01/10 00:01:26;;;;;;;1999.90;999.90;;;-7.00;96.10;;;;;;5047727;28;20041;-72
2024/01/10 00:03:53;;;;;;;1999.90;999.90;;;-7.10;96.10;;;;;;5017674;28;20067;-72
2024/01/10 00:06:19;;;;;;;1999.90;999.90;;;-7.00;96.20;;;;;;5046943;28;20044;-73
2024/01/10 00:08:45;;;;;;;1999.90;999.90;;;-7.00;96.20;;;;;;5030480;28;20025;-72
2024/01/10 00:11:10;;;;;;;1999.90;999.90;;;-7.00;96.10;;;;;;5030596;28;20036;-72
2024/01/10 00:13:36;;;;;;;1999.90;999.90;;;-6.90;96.00;;;;;;5034262;28;20037;-72
2024/01/10 00:16:02;;;;;;;1999.90;999.90;;;-6.90;95.30;;;;;;5030316;28;20025;-73
2024/01/10 00:18:28;;;;;;;1999.90;999.90;;;-6.90;95.50;;;;;;5046385;28;20150;-72
2024/01/10 00:20:53;;;;;;;1999.90;999.90;;;-7.00;95.70;;;;;;5043979;28;20453;-72
2024/01/10 00:23:22;;;;;;;1999.90;999.90;;;-7.00;95.90;;;;;;5027398;28;20045;-72
2024/01/10 00:25:48;;;;;;;1999.90;999.90;;;-7.10;96.00;;;;;;5049407;28;20133;-72
2024/01/10 00:28:16;;;;;;;1999.90;999.90;;;-7.20;96.00;;;;;;5049375;28;20495;-72
2024/01/10 00:30:42;;;;;;;1999.90;999.90;;;-7.10;96.00;;;;;;5061390;28;20029;-73
2024/01/10 00:33:08;;;;;;;1999.90;999.90;;;-7.00;96.10;;;;;;5047850;28;20502;-72
2024/01/10 00:35:33;;;;;;;1999.90;999.90;;;-6.90;95.80;;;;;;5047184;28;20041;-72
2024/01/10 00:37:59;;;;;;;1999.90;999.90;;;-7.00;96.00;;;;;;5031054;28;20029;-72
2024/01/10 00:40:25;;;;;;;1999.90;999.90;;;-6.80;96.00;;;;;;5033623;28;20037;-72
2024/01/10 00:42:50;;;;;;;1999.90;999.90;;;-6.70;96.10;;;;;;5048279;28;20037;-72
2024/01/10 00:45:17;;;;;;;1999.90;999.90;;;-6.60;96.10;;;;;;5044835;28;20789;-72
2024/01/10 00:47:42;;;;;;;1999.90;999.90;;;-6.60;96.10;;;;;;5029959;28;20029;-72
2024/01/10 00:50:08;;;;;;;1999.90;999.90;;;-6.60;96.20;;;;;;5047827;28;20032;-72
2024/01/10 00:52:34;;;;;;;1999.90;999.90;;;-6.40;96.30;;;;;;5027274;28;20034;-72
2024/01/10 00:55:00;;;;;;;1999.90;999.90;;;-6.30;96.00;;;;;;5047257;28;20036;-72
2024/01/10 00:57:26;;;;;;;1999.90;999.90;;;-6.50;95.50;;;;;;5043577;28;20368;-72
2024/01/10 00:59:51;;;;;;;1999.90;999.90;;;-6.60;95.90;;;;;;5044719;28;20025;-72
2024/01/10 01:02:17;;;;;;;1999.90;999.90;;;-6.60;96.00;;;;;;5044344;28;20673;-72
2024/01/10 01:04:43;;;;;;;1999.90;999.90;;;-6.50;96.00;;;;;;5050158;28;20392;-71
2024/01/10 01:07:08;;;;;;;1999.90;999.90;;;-6.60;95.90;;;;;;5045785;28;20024;-72
2024/01/10 01:09:34;;;;;;;1999.90;999.90;;;-6.70;96.00;;;;;;5050781;28;20099;-72
2024/01/10 01:12:00;;;;;;;1999.90;999.90;;;-6.70;96.00;;;;;;5047202;28;20558;-71
2024/01/10 01:14:26;;;;;;;1999.90;999.90;;;-6.60;96.10;;;;;;5038939;28;20048;-71
2024/01/10 01:16:51;;;;;;;1999.90;999.90;;;-6.50;96.20;;;;;;5031078;28;21100;-72
2024/01/10 01:19:17;;;;;;;1999.90;999.90;;;-6.40;96.20;;;;;;5048652;28;20490;-71
2024/01/10 01:21:43;;;;;;;1999.90;999.90;;;-6.40;96.20;;;;;;5042419;28;20049;-72
2024/01/10 01:24:09;;;;;;;1999.90;999.90;;;-6.30;96.20;;;;;;5045013;28;20026;-72
2024/01/10 01:26:35;;;;;;;1999.90;999.90;;;-6.40;96.10;;;;;;5050656;28;20032;-72
2024/01/10 01:29:01;;;;;;;1999.90;999.90;;;-6.50;96.10;;;;;;5048552;28;20062;-72
2024/01/10 01:31:26;;;;;;;1999.90;999.90;;;-6.40;96.00;;;;;;5042145;28;20040;-71
2024/01/10 01:33:52;;;;;;;1999.90;999.90;;;-6.30;96.30;;;;;;5049520;28;20479;-72
2024/01/10 01:36:18;;;;;;;1999.90;999.90;;;-6.20;95.90;;;;;;5033975;28;20037;-72
2024/01/10 01:38:44;;;;;;;1999.90;999.90;;;-6.10;96.10;;;;;;5051897;28;20039;-72
2024/01/10 01:41:09;;;;;;;1999.90;999.90;;;-6.00;95.60;;;;;;5045886;28;20032;-72
2024/01/10 01:43:38;;;;;;;1999.90;999.90;;;-6.00;95.50;;;;;;5050719;28;20033;-72
2024/01/10 01:46:03;;;;;;;1999.90;999.90;;;-6.00;95.60;;;;;;5040388;28;20120;-73
2024/01/10 01:48:30;;;;;;;1999.90;999.90;;;-6.20;95.80;;;;;;5030171;28;20127;-72
2024/01/10 01:51:02;;;;;;;1999.90;999.90;;;-6.20;96.00;;;;;;5046475;28;20060;-72
2024/01/10 01:53:28;;;;;;;1999.90;999.90;;;-6.10;96.00;;;;;;5043809;28;20029;-72
2024/01/10 01:55:54;;;;;;;1999.90;999.90;;;-6.10;96.10;;;;;;5048019;28;20029;-73
2024/01/10 01:58:22;;;;;;;1999.90;999.90;;;-6.10;96.20;;;;;;5045393;28;20033;-72
2024/01/10 02:00:48;;;;;;;1999.90;999.90;;;-6.00;96.20;;;;;;5049412;28;20040;-72
2024/01/10 02:03:13;;;;;;;1999.90;999.90;;;-6.00;96.20;;;;;;5043734;28;20029;-72
2024/01/10 02:05:40;;;;;;;1999.90;999.90;;;-5.90;96.20;;;;;;5049554;28;20025;-73
2024/01/10 02:08:06;;;;;;;1999.90;999.90;;;-5.90;96.20;;;;;;5044602;28;20392;-72
2024/01/10 02:10:31;;;;;;;1999.90;999.90;;;-5.80;95.80;;;;;;5030465;28;20032;-72
2024/01/10 02:12:57;;;;;;;1999.90;999.90;;;-5.80;95.90;;;;;;5035885;28;20368;-72
2024/01/10 02:15:24;;;;;;;1999.90;999.90;;;-5.80;95.70;;;;;;5047268;28;20052;-72
2024/01/10 02:17:50;;;;;;;1999.90;999.90;;;-5.80;96.00;;;;;;5046319;28;20383;-72
2024/01/10 02:20:21;;;;;;;1999.90;999.90;;;-5.80;95.80;;;;;;5049131;28;20051;-73
2024/01/10 02:22:47;;;;;;;1999.90;999.90;;;-5.90;95.80;;;;;;5048237;28;20045;-73
2024/01/10 02:25:13;;;;;;;1999.90;999.90;;;-6.00;96.00;;;;;;5032543;28;20551;-72
2024/01/10 02:27:40;;;;;;;1999.90;999.90;;;-6.10;95.80;;;;;;5051187;28;20037;-72
2024/01/10 02:30:08;;;;;;;1999.90;999.90;;;-6.10;96.00;;;;;;5054202;28;20044;-72
2024/01/10 02:32:34;;;;;;;1999.90;999.90;;;-5.90;95.50;;;;;;5053234;28;20047;-73
2024/01/10 02:35:00;;;;;;;1999.90;999.90;;;-5.90;95.70;;;;;;5051103;28;20021;-72
2024/01/10 02:37:25;;;;;;;1999.90;999.90;;;-5.90;96.00;;;;;;5033146;28;20464;-73
2024/01/10 02:39:51;;;;;;;1999.90;999.90;;;-5.80;96.00;;;;;;5048843;28;20383;-72
2024/01/10 02:42:17;;;;;;;1999.90;999.90;;;-5.80;96.10;;;;;;5051085;28;21324;-72
2024/01/10 02:44:43;;;;;;;1999.90;999.90;;;-5.90;96.00;;;;;;5049020;28;20041;-72
2024/01/10 02:47:11;;;;;;;1999.90;999.90;;;-5.90;95.40;;;;;;5047114;28;20025;-73
2024/01/10 02:49:37;;;;;;;1999.90;999.90;;;-5.90;95.20;;;;;;5053704;28;20142;-72
2024/01/10 02:52:03;;;;;;;1999.90;999.90;;;-5.90;95.70;;;;;;5047225;28;20060;-72
2024/01/10 02:54:29;;;;;;;1999.90;999.90;;;-5.90;95.50;;;;;;5050973;28;20436;-72
2024/01/10 02:56:55;;;;;;;1999.90;999.90;;;-5.90;95.70;;;;;;5047141;28;20033;-73
2024/01/10 02:59:20;;;;;;;1999.90;999.90;;;-5.80;95.90;;;;;;5046075;28;20404;-72
2024/01/10 03:01:46;;;;;;;1999.90;999.90;;;-5.70;95.90;;;;;;5055356;28;20028;-72
2024/01/10 03:04:12;;;;;;;1999.90;999.90;;;-5.70;95.60;;;;;;5048438;28;20025;-73
2024/01/10 03:06:37;;;;;;;1999.90;999.90;;;-5.60;95.80;;;;;;5049733;28;20059;-73
2024/01/10 03:09:03;;;;;;;1999.90;999.90;;;-5.70;95.30;;;;;;5029635;28;20524;-73
2024/01/10 03:11:30;;;;;;;1999.90;999.90;;;-5.70;95.70;;;;;;5046185;28;20717;-73
2024/01/10 03:14:10;;;;;;;1999.90;999.90;;;-5.70;95.90;;;;;;5030730;28;20056;-73
2024/01/10 03:16:36;;;;;;;1999.90;999.90;;;-5.80;95.90;;;;;;5049011;28;20104;-73
2024/01/10 03:19:02;;;;;;;1999.90;999.90;;;-5.90;95.90;;;;;;5051727;28;20157;-73
2024/01/10 03:21:28;;;;;;;1999.90;999.90;;;-5.90;96.00;;;;;;5049159;28;20039;-73
2024/01/10 03:23:58;;;;;;;1999.90;999.90;;;-5.60;96.00;;;;;;5051158;28;20037;-73
2024/01/10 03:26:25;;;;;;;1999.90;999.90;;;-5.70;96.20;;;;;;5028234;28;20037;-72
2024/01/10 03:28:51;;;;;;;1999.90;999.90;;;-5.70;96.20;;;;;;5052532;28;20047;-73
2024/01/10 03:31:17;;;;;;;1999.90;999.90;;;-5.50;95.90;;;;;;5047923;28;20025;-72
2024/01/10 03:33:43;;;;;;;1999.90;999.90;;;-5.60;95.80;;;;;;5054652;28;20063;-74
2024/01/10 03:36:16;;;;;;;1999.90;999.90;;;-5.70;96.00;;;;;;5046810;28;20491;-73
2024/01/10 03:38:42;;;;;;;1999.90;999.90;;;-5.70;95.90;;;;;;5033443;28;20029;-73
2024/01/10 03:41:13;;;;;;;1999.90;999.90;;;-5.60;95.90;;;;;;5051726;28;20100;-74
2024/01/10 03:43:39;;;;;;;1999.90;999.90;;;-5.60;95.90;;;;;;5049208;28;20035;-73
2024/01/10 03:46:05;;;;;;;1999.90;999.90;;;-5.60;95.90;;;;;;5029905;28;20045;-73
2024/01/10 03:48:31;;;;;;;1999.90;999.90;;;-5.40;96.00;;;;;;5050498;28;20124;-73
2024/01/10 03:50:57;;;;;;;1999.90;999.90;;;-5.50;95.90;;;;;;5063133;28;20053;-73
2024/01/10 03:53:23;;;;;;;1999.90;999.90;;;-5.50;95.10;;;;;;5046043;28;20281;-73
2024/01/10 03:55:49;;;;;;;1999.90;999.90;;;-5.50;95.10;;;;;;5040851;28;20529;-73
2024/01/10 03:58:15;;;;;;;1999.90;999.90;;;-5.50;95.80;;;;;;5052702;28;20022;-73
2024/01/10 04:00:40;;;;;;;1999.90;999.90;;;-5.60;95.80;;;;;;5053022;28;20029;-73
2024/01/10 04:03:06;;;;;;;1999.90;999.90;;;-5.70;95.70;;;;;;5036525;28;20033;-74
2024/01/10 04:05:31;;;;;;;1999.90;999.90;;;-5.60;95.80;;;;;;5049387;28;20091;-73
2024/01/10 04:07:57;;;;;;;1999.90;999.90;;;-5.50;96.00;;;;;;5030958;28;20127;-73
2024/01/10 04:10:23;;;;;;;1999.90;999.90;;;-5.70;95.80;;;;;;5047803;28;20076;-73
2024/01/10 04:12:49;;;;;;;1999.90;999.90;;;-5.80;96.20;;;;;;5047867;28;20511;-73
2024/01/10 04:15:15;;;;;;;1999.90;999.90;;;-5.60;95.80;;;;;;5049778;28;20031;-73
2024/01/10 04:17:41;;;;;;;1999.90;999.90;;;-5.60;96.20;;;;;;5050335;28;20028;-73
2024/01/10 04:20:10;;;;;;;1999.90;999.90;;;-5.40;95.50;;;;;;5036048;28;20055;-73
2024/01/10 04:22:36;;;;;;;1999.90;999.90;;;-5.30;95.60;;;;;;5034032;28;20068;-73
2024/01/10 04:25:05;;;;;;;1999.90;999.90;;;-5.40;96.00;;;;;;5052491;28;20527;-74
2024/01/10 04:27:31;;;;;;;1999.90;999.90;;;-5.40;95.70;;;;;;5044117;28;20052;-74
2024/01/10 04:29:57;;;;;;;1999.90;999.90;;;-5.40;94.90;;;;;;5047067;28;20466;-72
2024/01/10 04:32:23;;;;;;;1999.90;999.90;;;-5.50;94.90;;;;;;5030742;28;20036;-75
2024/01/10 04:34:48;;;;;;;1999.90;999.90;;;-5.40;95.50;;;;;;5049251;28;20116;-74
2024/01/10 04:37:14;;;;;;;1999.90;999.90;;;-5.40;96.10;;;;;;5016231;28;20021;-73
2024/01/10 04:39:42;;;;;;;1999.90;999.90;;;-5.40;96.00;;;;;;5030055;28;20036;-73
2024/01/10 04:42:08;;;;;;;1999.90;999.90;;;-5.30;95.80;;;;;;5046381;28;20036;-74
2024/01/10 04:44:34;;;;;;;1999.90;999.90;;;-5.40;96.10;;;;;;5046556;28;20399;-73
2024/01/10 04:46:59;;;;;;;1999.90;999.90;;;-5.40;96.20;;;;;;5025901;28;20093;-73
2024/01/10 04:49:25;;;;;;;1999.90;999.90;;;-5.60;96.10;;;;;;5027691;28;20029;-73
2024/01/10 04:51:51;;;;;;;1999.90;999.90;;;-5.60;96.10;;;;;;5040631;28;20028;-73
2024/01/10 04:54:17;;;;;;;1999.90;999.90;;;-5.50;96.20;;;;;;5035370;28;20030;-73
2024/01/10 04:56:42;;;;;;;1999.90;999.90;;;-5.50;95.90;;;;;;5040381;28;20037;-73
2024/01/10 04:59:08;;;;;;;1999.90;999.90;;;-5.40;96.10;;;;;;5043153;28;20052;-73
2024/01/10 05:01:34;;;;;;;1999.90;999.90;;;-5.40;96.20;;;;;;5024633;28;20055;-73
2024/01/10 05:04:00;;;;;;;1999.90;999.90;;;-5.30;96.10;;;;;;5028003;28;20043;-72
2024/01/10 05:06:26;;;;;;;1999.90;999.90;;;-5.40;96.10;;;;;;5043306;28;20108;-74
2024/01/10 05:08:51;;;;;;;1999.90;999.90;;;-5.20;96.40;;;;;;5043278;28;20033;-73
2024/01/10 05:11:17;;;;;;;1999.90;999.90;;;-5.10;95.40;;;;;;5028389;28;20040;-73
2024/01/10 05:13:43;;;;;;;1999.90;999.90;;;-5.20;96.10;;;;;;5049770;28;20033;-73
2024/01/10 05:16:09;;;;;;;1999.90;999.90;;;-5.20;96.20;;;;;;5042863;28;20017;-74
2024/01/10 05:18:35;;;;;;;1999.90;999.90;;;-5.30;96.00;;;;;;5049312;28;20017;-73
2024/01/10 05:21:01;;;;;;;1999.90;999.90;;;-5.30;96.10;;;;;;5047677;28;20040;-72
2024/01/10 05:23:27;;;;;;;1999.90;999.90;;;-5.40;96.10;;;;;;5039453;28;20065;-72
2024/01/10 05:25:54;;;;;;;1999.90;999.90;;;-5.40;96.20;;;;;;5036502;28;20060;-73
2024/01/10 05:28:19;;;;;;;1999.90;999.90;;;-5.40;96.30;;;;;;5047664;28;20178;-73
2024/01/10 05:30:45;;;;;;;1999.90;999.90;;;-5.30;96.30;;;;;;5045319;28;20040;-73
2024/01/10 05:33:11;;;;;;;1999.90;999.90;;;-5.10;96.20;;;;;;5044220;28;20033;-73
2024/01/10 05:35:38;;;;;;;1999.90;999.90;;;-5.10;96.10;;;;;;5040069;28;20648;-75
2024/01/10 05:38:04;;;;;;;1999.90;999.90;;;-5.00;96.20;;;;;;5029022;28;20075;-76
2024/01/10 05:40:30;;;;;;;1999.90;999.90;;;-5.00;96.20;;;;;;5044549;28;20021;-75
2024/01/10 05:42:56;;;;;;;1999.90;999.90;;;-5.10;96.30;;;;;;5024355;28;20041;-76
2024/01/10 05:45:22;;;;;;;1999.90;999.90;;;-5.10;96.40;;;;;;5031785;28;20510;-76
2024/01/10 05:47:48;;;;;;;1999.90;999.90;;;-5.10;96.10;;;;;;5029854;28;20029;-76
2024/01/10 05:50:14;;;;;;;1999.90;999.90;;;-5.20;96.10;;;;;;5043228;28;20037;-76
2024/01/10 05:52:40;;;;;;;1999.90;999.90;;;-5.10;96.00;;;;;;5060413;28;20034;-75
2024/01/10 05:55:08;;;;;;;1999.90;999.90;;;-5.30;95.80;;;;;;5013324;28;20053;-75
2024/01/10 05:57:34;;;;;;;1999.90;999.90;;;-5.30;96.10;;;;;;5045839;28;20067;-74
2024/01/10 06:00:00;;;;;;;1999.90;999.90;;;-5.10;96.20;;;;;;5048193;28;20049;-75
2024/01/10 06:02:26;;;;;;;1999.90;999.90;;;-5.10;96.20;;;;;;5026631;28;20091;-76
2024/01/10 06:04:52;;;;;;;1999.90;999.90;;;-5.10;96.20;;;;;;5049825;28;20033;-75
2024/01/10 06:07:18;;;;;;;1999.90;999.90;;;-5.00;95.70;;;;;;5047351;28;20041;-75
2024/01/10 06:09:45;;;;;;;1999.90;999.90;;;-5.00;95.30;;;;;;5048919;28;20036;-76
2024/01/10 06:12:10;;;;;;;1999.90;999.90;;;-5.00;95.70;;;;;;5048708;28;20025;-76
2024/01/10 06:14:36;;;;;;;1999.90;999.90;;;-5.00;95.90;;;;;;5028357;28;20095;-76
2024/01/10 06:17:03;;;;;;;1999.90;999.90;;;-5.30;96.00;;;;;;5048827;28;20025;-75
2024/01/10 06:19:31;;;;;;;1999.90;999.90;;;-5.30;96.20;;;;;;5045583;28;20032;-75
2024/01/10 06:21:57;;;;;;;1999.90;999.90;;;-5.20;96.20;;;;;;5049568;28;20065;-76
2024/01/10 06:24:22;;;;;;;1999.90;999.90;;;-5.20;96.30;;;;;;5048103;28;20476;-74
2024/01/10 06:26:49;;;;;;;1999.90;999.90;;;-5.20;96.30;;;;;;5044565;28;20037;-78
2024/01/10 06:29:15;;;;;;;1999.90;999.90;;;-5.30;96.20;;;;;;5044705;28;20072;-78
2024/01/10 06:31:41;;;;;;;1999.90;999.90;;;-5.30;96.30;;;;;;5045820;28;20131;-76
2024/01/10 06:34:07;;;;;;;1999.90;999.90;;;-5.30;96.40;;;;;;5045842;28;20140;-76
2024/01/10 06:36:33;;;;;;;1999.90;999.90;;;-5.10;96.30;;;;;;5045197;28;20483;-77
2024/01/10 06:38:59;;;;;;;1999.90;999.90;;;-5.10;96.20;;;;;;5028102;28;20044;-78
2024/01/10 06:41:24;;;;;;;1999.90;999.90;;;-5.10;96.00;;;;;;5043672;28;20025;-77
2024/01/10 06:43:54;;;;;;;1999.90;999.90;;;-5.30;96.20;;;;;;5028016;28;20029;-78
2024/01/10 06:46:20;;;;;;;1999.90;999.90;;;-5.30;96.10;;;;;;5044118;28;20030;-78
2024/01/10 06:48:47;;;;;;;1999.90;999.90;;;-5.20;96.40;;;;;;5025994;28;20040;-77
2024/01/10 06:51:13;;;;;;;1999.90;999.90;;;-5.20;96.40;;;;;;5043758;28;20057;-78
2024/01/10 06:53:39;;;;;;;1999.90;999.90;;;-5.00;96.20;;;;;;5043490;28;20025;-77
2024/01/10 06:56:06;;;;;;;1999.90;999.90;;;-4.90;96.60;;;;;;5042112;28;20498;-77
2024/01/10 06:58:32;;;;;;;1999.90;999.90;;;-4.80;96.30;;;;;;5039962;28;20035;-78
2024/01/10 07:00:58;;;;;;;1999.90;999.90;;;-5.00;96.10;;;;;;5040868;28;20033;-77
2024/01/10 07:03:23;;;;;;;1999.90;999.90;;;-5.10;96.40;;;;;;5042467;28;20487;-77
2024/01/10 07:05:49;;;;;;;1999.90;999.90;;;-5.00;96.30;;;;;;5041363;28;20025;-77
2024/01/10 07:08:16;;;;;;;1999.90;999.90;;;-5.00;96.30;;;;;;5025859;28;20553;-77
2024/01/10 07:10:42;;;;;;;1999.90;999.90;;;-5.00;96.40;;;;;;5020019;28;20087;-77
2024/01/10 07:13:08;;;;;;;1999.90;999.90;;;-5.00;96.30;;;;;;5059397;28;20033;-77
2024/01/10 07:15:33;;;;;;;1999.90;999.90;;;-5.10;96.30;;;;;;5041359;28;20040;-77
2024/01/10 07:17:59;;;;;;;1999.90;999.90;;;-4.90;96.20;;;;;;5028203;28;20500;-77
2024/01/10 07:20:28;;;;;;;1999.90;999.90;;;-5.30;96.10;;;;;;5025556;28;20335;-77
2024/01/10 07:22:54;;;;;;;1999.90;999.90;;;-5.10;96.20;;;;;;5022686;28;20052;-77
2024/01/10 07:25:22;;;;;;;1999.90;999.90;;;-5.20;96.40;;;;;;5043275;28;20517;-77
2024/01/10 07:27:48;;;;;;;1999.90;999.90;;;-5.30;96.50;;;;;;5038755;28;20017;-77
2024/01/10 07:30:13;;;;;;;1999.90;999.90;;;-5.10;96.60;;;;;;5043885;28;20036;-77
2024/01/10 07:32:43;;;;;;;1999.90;999.90;;;-4.90;96.60;;;;;;5040353;28;20033;-76
2024/01/10 07:35:09;;;;;;;1999.90;999.90;;;-4.90;96.70;;;;;;5042882;28;20036;-77
2024/01/10 07:37:39;;;;;;;1999.90;999.90;;;-4.80;96.50;;;;;;5040173;28;20119;-77
2024/01/10 07:40:06;;;;;;;1999.90;999.90;;;-4.80;96.50;;;;;;5043941;28;20032;-77
2024/01/10 07:42:35;;;;;;;1999.90;999.90;;;-4.80;96.60;;;;;;5041586;28;20615;-77
2024/01/10 07:45:04;;;;;;;1999.90;999.90;;;-4.60;95.60;;;;;;5055747;28;20124;-76
2024/01/10 07:47:31;;;;;;;1999.90;999.90;;;-4.70;96.30;;;;;;5028033;28;20033;-78
2024/01/10 07:49:57;;;;;;;1999.90;999.90;;;-4.80;96.10;;;;;;5057933;28;20065;-77
2024/01/10 07:52:23;;;;;;;1999.90;999.90;;;-4.80;96.30;;;;;;5022048;28;20033;-77
2024/01/10 07:54:49;;;;;;;1999.90;999.90;;;-4.80;96.20;;;;;;5042231;28;20033;-77
2024/01/10 07:57:14;;;;;;;1999.90;999.90;;;-4.70;95.20;;;;;;5055905;28;20074;-77
2024/01/10 07:59:40;;;;;;;1999.90;999.90;;;-4.60;95.30;;;;;;5042800;28;20029;-77
2024/01/10 08:02:07;;;;;;;1999.90;999.90;;;-4.60;96.00;;;;;;5040410;28;20040;-77
2024/01/10 08:04:32;;;;;;;1999.90;999.90;;;-4.40;96.10;;;;;;5022015;28;20032;-76
2024/01/10 08:06:58;;;;;;;1999.90;999.90;;;-4.30;95.00;;;;;;5021032;28;20033;-77
2024/01/10 08:09:24;;;;;;;1999.90;999.90;;;-4.40;95.70;;;;;;5045130;28;20060;-76
2024/01/10 08:11:50;;;;;;;1999.90;999.90;;;-4.30;96.10;;;;;;5043397;28;20080;-77
2024/01/10 08:14:16;;;;;;;1999.90;999.90;;;-4.20;96.00;;;;;;5038517;28;20036;-76
2024/01/10 08:16:42;;;;;;;1999.90;999.90;;;-4.20;93.90;;;;;;5045120;28;20546;-77
2024/01/10 08:19:08;;;;;;;1999.90;999.90;;;-4.20;95.40;;;;;;5024210;28;20119;-77
2024/01/10 08:21:34;;;;;;;1999.90;999.90;;;-4.10;95.40;;;;;;5040713;28;20042;-77
2024/01/10 08:24:02;;;;;;;1999.90;999.90;;;-4.20;95.00;;;;;;5043567;28;20033;-76
2024/01/10 08:26:28;;;;;;;1999.90;999.90;;;-4.10;95.50;;;;;;5037291;28;20022;-77
2024/01/10 08:28:54;;;;;;;1999.90;999.90;;;-3.90;95.50;;;;;;5040117;28;20055;-77
2024/01/10 08:31:19;;;;;;;1999.90;999.90;;;-3.90;95.90;;;;;;5023846;28;20039;-77
2024/01/10 08:33:46;;;;;;;1999.90;999.90;;;-3.80;95.40;;;;;;5040265;28;20466;-77
2024/01/10 08:36:14;;;;;;;1999.90;999.90;;;-3.80;95.10;;;;;;5027089;28;20045;-77
2024/01/10 08:38:40;;;;;;;1999.90;999.90;;;-3.70;95.00;;;;;;5037043;28;20026;-77
2024/01/10 08:41:08;;;;;;;1999.90;999.90;;;-3.90;94.70;;;;;;5026419;28;20029;-76
2024/01/10 08:43:34;;;;;;;1999.90;999.90;;;-3.70;93.30;;;;;;5046855;28;20451;-76
2024/01/10 08:46:00;;;;;;;1999.90;999.90;;;-3.70;94.00;;;;;;5050304;28;20033;-78
2024/01/10 08:48:26;;;;;;;1999.90;999.90;;;-3.60;94.10;;;;;;5048797;28;20518;-77
2024/01/10 08:50:55;;;;;;;1999.90;999.90;;;-3.60;94.80;;;;;;5046474;28;20038;-77
2024/01/10 08:53:22;;;;;;;1999.90;999.90;;;-3.50;94.50;;;;;;5028365;28;20050;-76
2024/01/10 08:55:48;;;;;;;1999.90;999.90;;;-3.50;93.80;;;;;;5045238;28;20298;-78
2024/01/10 08:58:13;;;;;;;1999.90;999.90;;;-3.60;95.20;;;;;;5028043;28;20108;-76
2024/01/10 09:00:39;;;;;;;1999.90;999.90;;;-3.60;94.60;;;;;;5042827;28;20033;-78
2024/01/10 09:03:05;;;;;;;1999.90;999.90;;;-3.50;94.90;;;;;;5046469;28;20044;-77
2024/01/10 09:05:31;;;;;;;1999.90;999.90;;;-3.40;93.90;;;;;;5040718;28;20525;-78
2024/01/10 09:07:56;;;;;;;1999.90;999.90;;;-3.50;95.30;;;;;;5042779;28;20508;-77
2024/01/10 09:10:22;;;;;;;1999.90;999.90;;;-3.40;95.10;;;;;;5043923;28;20058;-77
2024/01/10 09:12:48;;;;;;;1999.90;999.90;;;-3.30;94.30;;;;;;5046187;28;20033;-77
2024/01/10 09:15:15;;;;;;;1999.90;999.90;;;-3.20;94.80;;;;;;5050403;28;20047;-77
2024/01/10 09:17:44;;;;;;;1999.90;999.90;;;-3.30;95.00;;;;;;5044110;28;20786;-77
2024/01/10 09:20:11;;;;;;;1999.90;999.90;;;-3.00;95.00;;;;;;5032015;28;20527;-78
2024/01/10 09:22:37;;;;;;;1999.90;999.90;;;-3.00;95.50;;;;;;5044378;28;20041;-77
2024/01/10 09:25:05;;;;;;;1999.90;999.90;;;-3.10;95.10;;;;;;5047477;28;20021;-76
2024/01/10 09:27:33;;;;;;;1999.90;999.90;;;-3.00;94.40;;;;;;5048896;28;20438;-77
2024/01/10 09:30:00;;;;;;;1999.90;999.90;;;-2.90;95.10;;;;;;5042110;28;20112;-77
2024/01/10 09:32:26;;;;;;;1999.90;999.90;;;-2.70;94.70;;;;;;5029363;28;20083;-76
2024/01/10 09:34:52;;;;;;;1999.90;999.90;;;-2.80;92.50;;;;;;5048376;28;20041;-76
2024/01/10 09:37:17;;;;;;;1999.90;999.90;;;-3.00;94.70;;;;;;5031772;28;20526;-77
2024/01/10 09:39:43;;;;;;;1999.90;999.90;;;-2.70;95.00;;;;;;5027962;28;20669;-77
2024/01/10 09:42:09;;;;;;;1999.90;999.90;;;-2.70;95.00;;;;;;5049905;28;20447;-76
2024/01/10 09:44:34;;;;;;;1999.90;999.90;;;-2.60;94.40;;;;;;5045117;28;20036;-77
2024/01/10 09:47:02;;;;;;;1999.90;999.90;;;-2.50;94.40;;;;;;5049574;28;20035;-77
2024/01/10 09:49:27;;;;;;;1999.90;999.90;;;-2.40;95.10;;;;;;5044705;28;20042;-76
2024/01/10 09:52:02;;;;;;;1999.90;999.90;;;-2.20;93.30;;;;;;5045502;28;20200;-82
2024/01/10 09:54:30;;;;;;;1999.90;999.90;;;-2.40;95.10;;;;;;5028486;28;20059;-78
2024/01/10 09:56:59;;;;;;;1999.90;999.90;;;-2.30;95.00;;;;;;5044894;28;20032;-77
2024/01/10 09:59:24;;;;;;;1999.90;999.90;;;-2.30;95.00;;;;;;5049002;28;20785;-76
2024/01/10 10:01:52;;;;;;;1999.90;999.90;;;-2.40;94.70;;;;;;5028253;28;20031;-77
2024/01/10 10:04:19;;;;;;;1999.90;999.90;;;-2.20;95.20;;;;;;5059828;28;20037;-76
2024/01/10 10:06:45;;;;;;;1999.90;999.90;;;-2.20;94.70;;;;;;5046562;28;20107;-78
2024/01/10 10:09:16;;;;;;;1999.90;999.90;;;-2.40;94.90;;;;;;5027068;28;20033;-77
2024/01/10 10:11:41;;;;;;;;;;;-2.20;94.90;;;;;;5049647;28;20483;-76
2024/01/10 10:14:15;;;;;;;1999.90;999.90;;;-2.00;94.10;;;;;;5047053;28;19923;-77
2024/01/10 10:16:41;;;;;;;1999.90;999.90;;;-1.90;94.00;;;;;;5029868;28;20025;-77
2024/01/10 10:19:08;;;;;;;1999.90;999.90;;;-2.00;92.40;;;;;;5049383;28;20037;-77
2024/01/10 10:21:35;;;;;;;1999.90;999.90;;;-1.90;92.50;;;;;;5031428;28;20045;-76
2024/01/10 10:24:03;;;;;;;1999.90;999.90;;;-2.10;93.70;;;;;;5047767;28;20040;-77
2024/01/10 10:26:32;;;;;;;1999.90;999.90;;;-2.10;94.60;;;;;;5050013;28;20672;-76
2024/01/10 10:28:59;;;;;;;1999.90;999.90;;;-2.40;94.30;;;;;;5046843;28;20048;-77
2024/01/10 10:31:25;;;;;;;1999.90;999.90;;;-2.40;94.80;;;;;;5052395;28;20036;-77
2024/01/10 10:33:51;;;;;;;1999.90;999.90;;;-2.20;94.40;;;;;;5049124;28;20058;-77
2024/01/10 10:36:17;;;;;;;1999.90;999.90;;;-2.00;95.00;;;;;;5033013;28;20514;-76
2024/01/10 10:38:43;;;;;;;1999.90;999.90;;;-1.80;93.80;;;;;;5032233;28;20049;-77
2024/01/10 10:41:10;;;;;;;1999.90;999.90;;;-1.90;92.90;;;;;;5048492;28;20080;-77
2024/01/10 10:43:37;;;;;;;1999.90;999.90;;;-1.70;92.60;;;;;;5063715;28;20798;-77
2024/01/10 10:46:06;;;;;;;1999.90;999.90;;;-1.60;94.70;;;;;;5048376;28;20104;-76
2024/01/10 10:48:36;;;;;;;1999.90;999.90;;;-1.30;93.50;;;;;;5049867;28;20079;-75
2024/01/10 10:51:08;;;;;;;1999.90;999.90;;;-1.20;93.80;;;;;;5047572;28;20505;-75
2024/01/10 10:53:35;;;;;;;1999.90;999.90;;;-1.30;94.00;;;;;;5051065;28;20541;-76
2024/01/10 10:56:04;;;;;;;1999.90;999.90;;;-1.20;94.10;;;;;;5046584;28;20118;-74
2024/01/10 10:58:35;;;;;;;1999.90;999.90;;;-1.10;93.80;;;;;;5046865;28;20017;-75
2024/01/10 11:01:02;;;;;;;;;;;-1.30;94.30;;;;;;5049403;28;20040;-76
2024/01/10 11:03:31;;;;;;;1999.90;999.90;;;-1.30;94.30;;;;;;5063648;28;20050;-75
2024/01/10 11:06:00;;;;;;;1999.90;999.90;;;-1.80;93.90;;;;;;5048251;28;20513;-73
2024/01/10 11:08:26;;;;;;;1999.90;999.90;;;-1.30;93.50;;;;;;5052457;28;20063;-75
2024/01/10 11:10:53;;;;;;;1999.90;999.90;;;-1.00;92.90;;;;;;5049722;28;20021;-76
2024/01/10 11:13:24;;;;;;;1999.90;999.90;;;-1.10;93.40;;;;;;5052503;28;20028;-75
2024/01/10 11:16:15;;;;;;;1999.90;999.90;;;-0.80;92.20;;;;;;5047450;28;20025;-75
2024/01/10 11:18:50;;;;;;;1999.90;999.90;;;-0.60;93.70;;;;;;5051281;28;20037;-77
2024/01/10 11:21:28;;;;;;;1999.90;999.90;;;-0.60;94.10;;;;;;5048847;28;20071;-77
2024/01/10 11:24:00;;;;;;;1999.90;999.90;;;-0.70;94.40;;;;;;5050384;28;20039;-76
2024/01/10 11:26:26;;;;;;;1999.90;999.90;;;-0.80;94.20;;;;;;5048304;28;20558;-76
2024/01/10 11:28:52;;;;;;;1999.90;999.90;;;-0.80;94.70;;;;;;5050819;28;20115;-77
2024/01/10 11:31:31;;;;;;;1999.90;999.90;;;-0.70;93.00;;;;;;5046486;28;20046;-80
2024/01/10 11:34:00;;;;;;;1999.90;999.90;;;-0.50;94.10;;;;;;5046064;28;20124;-76
2024/01/10 11:36:26;;;;;;;1999.90;999.90;;;-1.00;93.70;;;;;;5046654;28;20025;-75
2024/01/10 11:38:53;;;;;;;1999.90;999.90;;;-1.10;94.90;;;;;;5048919;28;20029;-75
2024/01/10 11:41:28;;;;;;;1999.90;999.90;;;-1.00;94.80;;;;;;5043347;28;20033;-75
2024/01/10 11:44:13;;;;;;;1999.90;999.90;;;-1.10;93.70;;;;;;5052664;28;20032;-76
2024/01/10 11:46:43;;;;;;;1999.90;999.90;;;-1.00;94.80;;;;;;5049687;28;20577;-75
2024/01/10 11:49:10;;;;;;;1999.90;999.90;;;-1.10;92.50;;;;;;5046152;28;20037;-76
2024/01/10 11:51:36;;;;;;;1999.90;999.90;;;-1.50;95.10;;;;;;5028907;28;20061;-76
2024/01/10 11:54:02;;;;;;;1999.90;999.90;;;-1.40;95.60;;;;;;5030447;28;20368;-76
2024/01/10 11:56:39;;;;;;;1999.90;999.90;;;-1.30;95.00;;;;;;5049221;28;20072;-76
2024/01/10 11:59:15;;;;;;;1999.90;999.90;;;-1.30;93.00;;;;;;5058842;28;20543;-77